Logo AVAMET
Benvolgut visitant, si us plau, ingressa Recuperar contrasenya
AVAMET paisatges

Inforatge Catadau Lloma Molina

Dades diàries. Acumulats / Últims 30 dies disponibles

Data Temperatura (°C) Humitat rel. (%) Pressió rel. (hPa) Vent (km/h) Precipitació
Mínima Mitjana Màxima Amplitud
tèrmica
Mínima Mitjana Màxima Mínima Mitjana Màxima Predom. Mitjana Ràfega
màxima
Total
(mm)
Índex-n
Mínima Mitjana Màxima Mínima Mitjana Màxima n
0 a 1
P0 max
mm 5'
Dades mensuals acumulades fins l'últim dia disponible
12/2020 2,2 5,7 8,1 11,2 13,6 15,3 18,4 16,2 33 60 90 1.002 1.014 1.024   9,7 70,8 0,0
Dades anuals acumulades fins l'últim dia disponible
2020 2,2 14,2 24,0 18,3 6,9 23,0 34,3 32,1 19 71 98 992 1.018 1.034   8,4 127,1 600,6
Últims 30 dies disponibles
03-12-2020 2,2     9,2     13,6 11,4 38 52 76 1.002 1.010 1.016 W 9,8 70,8 0,0
02-12-2020 6,8     11,6     14,0 7,2 33 51 64 1.012 1.013 1.016 NW 14,2 43,5 0,0
01-12-2020 8,1     12,7     18,4 10,3 55 76 90 1.015 1.019 1.024 W 5,1 19,3 0,0
30-11-2020 8,7     12,4     17,9 9,2 64 83 89 1.020 1.022 1.024 SO 4,8 11,3 0,0
29-11-2020 9,8     12,8     17,8 8,0 65 79 88 1.011 1.016 1.020 W 4,3 32,2 0,0
28-11-2020 10,4     12,6     16,5 6,1 68 81 91 1.004 1.006 1.011 NW 8,9 40,2 5,6
27-11-2020 10,4     13,7     16,4 6,0 79 90 93 1.004 1.008 1.013 ENE 13,2 48,3 48,4
26-11-2020 11,4     13,8     16,6 5,2 86 89 92 1.012 1.014 1.016 NE 7,2 30,6 0,8
25-11-2020 8,0     11,9     16,4 8,4 58 77 88 1.015 1.017 1.020 W 4,5 16,1 0,0
24-11-2020 6,8     11,0     16,8 10,0 60 82 92 1.020 1.023 1.026 W 5,0 12,9 0,2
23-11-2020 7,3     10,8     16,1 8,8 64 84 92 1.026 1.027 1.029 W 5,0 16,1 0,0
22-11-2020 6,4     10,8     16,8 10,4 55 81 91 1.026 1.028 1.030 W 5,8 14,5 0,0
21-11-2020 7,4     11,5     16,4 9,0 60 78 89 1.027 1.028 1.030 W 5,6 17,7 0,0
20-11-2020 9,7     13,9     17,5 7,8 62 75 86 1.026 1.027 1.029 W 5,8 20,9 0,0
19-11-2020 12,7     16,1     21,3 8,6 63 80 94 1.028 1.029 1.031 W 4,0 12,9 0,0
18-11-2020 11,3     14,9     20,3 9,0 67 85 93 1.026 1.027 1.029 W 4,5 16,1 0,0
17-11-2020 12,2     15,9     20,8 8,6 69 84 91 1.025 1.026 1.028 W 4,5 17,7 0,0
16-11-2020 14,2     19,1     23,2 9,0 57 73 87 1.019 1.022 1.026 W 10,5 45,1 0,0
15-11-2020 16,0     18,8     22,2 6,2 64 73 82 1.019 1.020 1.022 W 10,9 48,3 0,0
14-11-2020 13,5     15,3     17,1 3,6 81 89 93 1.020 1.021 1.023 W 1,9 14,5 0,0
13-11-2020 12,9     15,2     18,2 5,3 74 84 90 1.020 1.021 1.023 W 3,5 14,5 0,0
12-11-2020 10,9     14,1     18,7 7,8 61 81 90 1.021 1.023 1.024 W 4,3 12,9 0,2
11-11-2020 10,5     14,4     19,6 9,1 62 84 93 1.023 1.025 1.028 W 5,3 16,1 0,0
10-11-2020 12,1     15,6     19,7 7,6 58 77 92 1.023 1.025 1.028 W 4,2 16,1 0,0
09-11-2020 11,2     16,2     22,6 11,4 47 75 87 1.021 1.022 1.024 W 5,1 19,3 0,0
08-11-2020 12,4     15,9     21,0 8,6 54 74 87 1.021 1.023 1.024 W 5,1 22,5 0,0
07-11-2020 13,4     16,3     18,8 5,4 67 84 96 1.015 1.020 1.024 NE 7,4 45,1 8,4 0,71 2,40
06-11-2020 15,0     17,1     18,4 3,4 91 94 97 1.018 1.021 1.023 NE 12,7 37,0 0,6
05-11-2020 12,1     13,6     15,6 3,5 91 96 97 1.020 1.022 1.024 NE 16,4 57,9 108,6 0,67 15,30
04-11-2020 11,6     13,0     16,4 4,8 75 88 94 1.020 1.021 1.024 NW 8,0 35,4 3,2
Últims 13 mesos disponibles
10/2020 9,4 13,7 18,7 18,1 19,6 23,3 29,9 20,5 40 63 90 998 1.017 1.025 W 9,9 88,5 10,8
09/2020 13,7 18,0 21,3 22,4 22,9 27,4 30,9 17,2 38 67 86 1.011 1.018 1.024 W 8,6 70,8 7,6
08/2020 15,7 21,6 24,0 25,9 24,9 30,6 34,3 18,6 33 70 82 1.005 1.015 1.020 E 7,3 41,8 2,0
07/2020 17,4 20,9 23,1 25,1 25,7 29,6 34,1 16,7 51 74 87 1.012 1.017 1.021 ENE 7,1 40,2 38,8
06/2020 14,1 17,8 20,3 22,4 20,8 27,7 33,5 19,4 40 68 86 1.005 1.015 1.021 W 8,7 59,5 5,0
05/2020 11,8 15,4 19,3 20,1 18,0 25,1 31,0 19,2 49 67 83 1.005 1.017 1.028 W 8,6 61,2 22,8
04/2020 7,4 11,6 16,3 14,8 14,6 19,1 24,6 17,2 46 78 94 1.005 1.016 1.026 W 7,7 59,5 58,4
03/2020 5,1 9,9 16,2 13,2 8,1 17,2 25,7 20,6 42 72 96 1.006 1.017 1.027 NW 11,4 127,1 113,4
02/2020 5,2 9,7 14,9 14,4 12,4 19,9 24,4 19,2 34 68 94 1.014 1.025 1.032 W 7,7 69,2 7,0
01/2020 2,7 7,1 14,2 10,6 6,9 14,5 18,5 15,8 50 74 96 1.015 1.025 1.032 W 9,3 77,2 158,8
12/2019 4,0 10,0 16,6 13,1 10,7 16,5 23,3 19,3 49 70 96 1.001 1.018 1.032 W 11,8 112,7 104,2
11/2019 5,3 11,5 19,7 14,6 14,1 18,3 26,3 21,0 43 57 75 998 1.010 1.018 WNW 17,2 95,0 6,2
10/2019 10,5 15,4 19,9 19,4 14,7 24,1 32,5 22,0 38 69 89 1.008 1.017 1.022 W 6,3 51,9 27,8
Tots els anys disponibles
Temperatura (°C)
Humitat relativa (%)
Velocitat del vent i ràfega màxima (km/h)
Direcció del vent (°)
Pressió (hPa)
Precipitació (mm)
Nota sobre les dades: s'avisa a l'usuari de la provisionalitat i no oficialitat d'aquestes dades
Logo AVAMET blanc
Web allotjada a Sollutia
Llicència de Creative CommonsLa web d'AVAMET i els seus continguts estan subjectes a una llicència de
Reconeixement - No Comercial - Compartir igual
Avís legal - Política de privacitat - Política de cookies
NOVES ESTACIONS: València - l'Olivereta (Soci), Xixona - Carrasqueta/Bugaia (Soci), l'Alcúdia de Crespins/Canals - la Muntanyeta (Soci), Utiel - est (Soci), Xàbia - Cansalades (Soci), Alginet (Soci), Quatretondeta (Ajuntament Soci) Enguera - Benali (Soci/ADENE), la Vall d'Alba - sud (Ajuntament Soci), El Fondó dels Frares (Estació pròpia d'AVAMET nº34) - - -